Impacts TAF Board INFO
FOR SITUATIONAL AWARENESS. NOT TO BE USED FOR FLIGHT PLANNING PURPOSES.
IDs:

KCLE - Cleveland/Hopkins In, OH, US

Issued at 2116 UTC 19 Jul 2018
Updated at 2308 UTC 19 Jul 2018
Potential Impact None Slight Moderate High
Time<<20/12Z 20/13Z 20/14Z 20/15Z 20/16Z 20/17Z 20/18Z 20/19Z 20/20Z 20/21Z 20/22Z 20/23Z 21/00Z>>
Type PRVL PRVL PRVL PRVL PRVL PRVL PRVL PRVL PRVL PRVL PRVL PRVL
VIS >6 >6 >6 >6 >6 >6 >6 >6 >6 >6 >6 >6
CIG 200 200 200 200 200 200 50 50 50 50 50 50
Cover OVC OVC OVC OVC OVC OVC OVC OVC OVC OVC OVC OVC
FltCat VFR VFR VFR VFR VFR VFR VFR VFR VFR VFR VFR VFR
WX -- -- -- -- -- -- -- -- -- -- -- --
WDir 150 150 150 150 150 150 170 170 170 170 170 170
WSpd 8 8 8 8 8 8 12 12 12 12 12 12
WGst -- -- -- -- -- -- 18 18 18 18 18 18

Raw TAF
KCLE 192116Z 1921/2024 01010KT P6SM BKN250
  FM200100 24007KT P6SM BKN250
  FM201000 15008KT P6SM SCT100 OVC200
  FM201800 17012G18KT P6SM BKN050 OVC100


METAR Board
Radar Display
Forecast Discussion

FOR SITUATIONAL AWARENESS. NOT TO BE USED FOR FLIGHT PLANNING PURPOSES.